Portada
METAR-TAF:

METAR-TAF

Aeroports :

Burgas, Bulgària

latitud: 42-29N, longitud: 027-29E, altitud: 16 m

Observació

L'informe es va fer fa 29 minuts, a les 04:30 UTC
Vent 2 kt amb direcció variable
Temperatura 20°C
Humitat 83%
Pressió 1012 hPa
Visibilitat 10 km o més
Núvols disperses a una alçada de 4000 ft

METAR: LBBG 040430Z VRB02KT 9999 SCT040 20/17 Q1012 NOSIG

Hora: 07:59 (04:59 UTC)

Pronòstic

L'informe es va fer fa 5 hores i 59 minuts, a les 23:00 UTC
Pronòstic vàlid del 04 a les 00 UTC al 04 a les 24 UTC
Vent 4 kt amb direcció variable
Visibilitat 10 km o més
Núvols disperses a una alçada de 2500 ft
Evolucionant progressivament
l' 04 a les 07 UTC al 04 a les 09 UTC
Vent 14 kt del Est
Evolucionant progressivament
l' 04 a les 20 UTC al 04 a les 22 UTC
Vent 4 kt amb direcció variable

TAF: LBBG 032300Z 0400/0424 VRB04KT 9999 SCT025 BECMG 0407/0409 10014KT BECMG 0420/0422 VRB04KT

Observacions i pronòstics meteorològics de més de 4000 aeroports (METAR i TAF).

Les estacions disponibles són els punts grocs i vermells al mapa.

Posi el ratolí al punt desitjat per veure el nom de l'estació.

Feu clic per veure les observacions i els pronòstics meteorològics.

Per canviar el mapa: feu clic els botons verds amb una creu de color negre per apropar; al botó verd amb un guió per allunyar la imatge; o en les fletxes verdes per a mapes adjacents.


METAR-TAF: